Time;durP1;ratioP1;P1;durP2;ratioP2;P2;SDS_P1;SDS_P2;PMS_P1;PMS_P2;Temp;Humidity;BMP_temperature;BMP_pressure;BME280_temperature;BME280_humidity;BME280_pressure;Samples;Min_cycle;Max_cycle;Signal;HPM_P1;HPM_P2
2022/08/12 00:43:15;;;;;;;3.30;3.03;;;;;;;;;;5078702;28;20285;-53
2022/08/12 00:48:24;;;;;;;4.22;2.30;;;;;;;;;;5076503;28;20243;-53
2022/08/12 00:50:52;;;;;;;4.80;3.15;;;;;;;;;;5075591;28;20326;-57
2022/08/12 00:53:19;;;;;;;2.78;2.58;;;;;;;;;;5078675;28;20231;-54
2022/08/12 00:55:46;;;;;;;3.53;2.88;;;;;;;;;;5074349;28;20298;-53
2022/08/12 00:58:15;;;;;;;3.13;2.70;;;;;;;;;;5069163;28;20291;-53
2022/08/12 01:00:42;;;;;;;2.38;2.17;;;;;;;;;;5077269;28;20234;-54
2022/08/12 01:03:10;;;;;;;3.78;2.80;;;;;;;;;;5074642;28;20696;-53
2022/08/12 01:13:53;;;;;;;4.55;2.85;;;;;;;;;;5079105;27;20275;-53
2022/08/12 01:16:21;;;;;;;4.45;2.42;;;;;;;;;;5082444;27;20230;-53
2022/08/12 01:18:48;;;;;;;4.45;3.30;;;;;;;;;;5083342;27;20665;-53
2022/08/12 01:21:25;;;;;;;4.47;2.63;;;;;;;;;;5078738;27;20242;-56
2022/08/12 01:24:00;;;;;;;3.45;2.78;;;;;;;;;;5070076;27;20322;-58
2022/08/12 01:26:28;;;;;;;2.85;2.33;;;;;;;;;;5078909;27;20798;-53
2022/08/12 01:28:56;;;;;;;3.50;2.80;;;;;;;;;;5085312;27;20226;-53
2022/08/12 01:31:24;;;;;;;2.67;2.47;;;;;;;;;;5080569;27;20321;-54
2022/08/12 01:33:56;;;;;;;3.17;2.17;;;;;;;;;;5081568;27;20242;-53
2022/08/12 01:36:25;;;;;;;4.05;2.50;;;;;;;;;;5076072;27;20284;-53
2022/08/12 01:38:55;;;;;;;3.75;2.58;;;;;;;;;;5081059;27;20225;-53
2022/08/12 01:41:24;;;;;;;3.17;2.47;;;;;;;;;;5049972;28;20676;-53
2022/08/12 01:43:52;;;;;;;2.70;2.50;;;;;;;;;;5083012;27;20230;-53
2022/08/12 01:46:25;;;;;;;4.95;2.88;;;;;;;;;;5082935;27;20238;-53
2022/08/12 01:48:59;;;;;;;2.80;2.60;;;;;;;;;;5088532;27;20234;-55
2022/08/12 01:51:30;;;;;;;3.40;2.47;;;;;;;;;;5074330;27;20699;-54
2022/08/12 01:54:03;;;;;;;3.85;3.03;;;;;;;;;;5080389;27;20238;-54
2022/08/12 01:56:32;;;;;;;3.30;2.03;;;;;;;;;;5079011;27;20237;-52
2022/08/12 02:01:46;;;;;;;2.60;2.40;;;;;;;;;;5066692;27;20738;-53
2022/08/12 02:12:42;;;;;;;3.17;2.70;;;;;;;;;;5055278;28;20641;-53
2022/08/12 02:15:16;;;;;;;3.33;2.40;;;;;;;;;;5076015;27;20239;-53
2022/08/12 02:17:48;;;;;;;3.63;2.72;;;;;;;;;;5083361;27;20233;-53
2022/08/12 02:20:20;;;;;;;2.50;2.30;;;;;;;;;;5075626;27;20235;-53
2022/08/12 02:22:47;;;;;;;4.03;2.80;;;;;;;;;;5084535;27;20309;-53
2022/08/12 02:25:15;;;;;;;5.38;2.90;;;;;;;;;;5077594;27;20237;-53
2022/08/12 02:27:44;;;;;;;6.25;2.63;;;;;;;;;;5080697;27;20249;-53
2022/08/12 02:30:13;;;;;;;4.18;2.53;;;;;;;;;;5078441;27;20239;-53
2022/08/12 02:32:41;;;;;;;5.55;2.97;;;;;;;;;;5081740;27;20793;-54
2022/08/12 02:35:10;;;;;;;4.55;2.33;;;;;;;;;;5078648;27;20234;-53
2022/08/12 02:37:36;;;;;;;2.65;2.42;;;;;;;;;;5082067;27;20253;-53
2022/08/12 02:40:03;;;;;;;3.05;2.78;;;;;;;;;;5078900;27;20231;-53
2022/08/12 02:42:32;;;;;;;5.15;2.85;;;;;;;;;;5084144;27;20247;-53
2022/08/12 02:45:01;;;;;;;3.33;2.47;;;;;;;;;;5071198;28;20261;-52
2022/08/12 02:47:29;;;;;;;4.93;2.45;;;;;;;;;;5076712;27;20235;-53
2022/08/12 02:49:57;;;;;;;6.25;2.63;;;;;;;;;;5079124;27;20235;-53
2022/08/12 02:52:25;;;;;;;2.70;2.50;;;;;;;;;;5075649;27;20272;-57
2022/08/12 02:54:58;;;;;;;4.05;2.80;;;;;;;;;;5079094;27;20226;-53
2022/08/12 02:57:25;;;;;;;2.65;2.38;;;;;;;;;;5078315;27;20234;-53
2022/08/12 02:59:51;;;;;;;3.22;2.58;;;;;;;;;;5083610;27;20231;-53
2022/08/12 03:02:21;;;;;;;4.65;3.00;;;;;;;;;;5078156;27;20235;-53
2022/08/12 03:04:52;;;;;;;4.13;2.60;;;;;;;;;;5081273;27;20227;-52
2022/08/12 03:07:21;;;;;;;4.68;2.83;;;;;;;;;;5079287;27;20230;-53
2022/08/12 03:09:50;;;;;;;5.25;2.80;;;;;;;;;;5078891;27;20242;-52
2022/08/12 03:12:18;;;;;;;3.28;2.58;;;;;;;;;;5086448;27;20241;-54
2022/08/12 03:14:44;;;;;;;4.30;2.80;;;;;;;;;;5082932;27;20239;-52
2022/08/12 03:17:15;;;;;;;8.25;2.58;;;;;;;;;;5075109;27;20230;-52
2022/08/12 03:19:44;;;;;;;2.53;2.33;;;;;;;;;;5079984;27;20317;-53
2022/08/12 03:22:13;;;;;;;3.35;2.60;;;;;;;;;;5080849;27;20321;-53
2022/08/12 03:24:41;;;;;;;3.67;3.08;;;;;;;;;;5081859;27;20360;-52
2022/08/12 03:27:08;;;;;;;3.42;3.03;;;;;;;;;;5078444;27;20988;-53
2022/08/12 03:29:36;;;;;;;4.72;3.22;;;;;;;;;;5075211;27;20252;-53
2022/08/12 03:32:03;;;;;;;10.43;3.35;;;;;;;;;;5082527;27;20238;-54
2022/08/12 03:34:34;;;;;;;5.30;2.80;;;;;;;;;;5080025;27;20241;-54
2022/08/12 03:37:01;;;;;;;5.57;3.20;;;;;;;;;;5080272;27;20226;-54
2022/08/12 03:39:39;;;;;;;4.38;3.38;;;;;;;;;;5075198;27;20248;-53
2022/08/12 03:42:10;;;;;;;6.07;3.60;;;;;;;;;;5078673;27;20241;-52
2022/08/12 04:01:06;;;;;;;3.53;2.97;;;;;;;;;;5076314;28;20233;-53
2022/08/12 04:06:17;;;;;;;5.35;3.70;;;;;;;;;;5075751;28;20647;-53
2022/08/12 04:08:44;;;;;;;5.15;3.15;;;;;;;;;;5076326;28;20720;-53
2022/08/12 04:14:04;;;;;;;4.20;3.80;;;;;;;;;;5079743;28;20237;-52
2022/08/12 04:16:31;;;;;;;6.57;3.42;;;;;;;;;;5073362;28;20230;-53
2022/08/12 04:18:58;;;;;;;6.13;3.60;;;;;;;;;;5076032;28;20227;-54
2022/08/12 04:21:24;;;;;;;6.18;3.83;;;;;;;;;;5069357;28;20245;-54
2022/08/12 04:23:52;;;;;;;4.03;3.58;;;;;;;;;;5076355;28;20245;-54
2022/08/12 04:26:20;;;;;;;4.18;3.47;;;;;;;;;;5077287;28;20732;-53
2022/08/12 04:28:46;;;;;;;6.05;3.40;;;;;;;;;;5085529;28;20244;-53
2022/08/12 04:31:13;;;;;;;4.38;2.95;;;;;;;;;;5082377;28;20238;-52
2022/08/12 04:33:41;;;;;;;7.07;3.08;;;;;;;;;;5077661;28;20260;-53
2022/08/12 04:36:08;;;;;;;4.95;3.05;;;;;;;;;;5078986;28;20583;-54
2022/08/12 04:38:34;;;;;;;7.07;3.20;;;;;;;;;;5086372;28;20227;-53
2022/08/12 04:41:01;;;;;;;3.97;2.83;;;;;;;;;;5078809;28;20237;-52
2022/08/12 04:43:29;;;;;;;3.30;3.00;;;;;;;;;;5075046;28;20230;-53
2022/08/12 04:45:55;;;;;;;12.35;3.67;;;;;;;;;;5083097;28;20340;-53
2022/08/12 04:48:22;;;;;;;3.85;3.08;;;;;;;;;;5079871;28;20696;-53
2022/08/12 04:50:48;;;;;;;3.20;2.90;;;;;;;;;;5084883;28;20238;-54
2022/08/12 04:53:14;;;;;;;2.50;2.30;;;;;;;;;;5081246;28;20249;-52
2022/08/12 04:55:41;;;;;;;9.25;3.25;;;;;;;;;;5073956;28;20242;-54
2022/08/12 04:58:08;;;;;;;3.78;3.17;;;;;;;;;;5074690;28;20717;-53
2022/08/12 05:00:36;;;;;;;6.90;3.60;;;;;;;;;;5077793;28;20231;-54
2022/08/12 05:03:03;;;;;;;5.32;3.38;;;;;;;;;;5076560;28;20473;-52
2022/08/12 05:05:31;;;;;;;5.97;3.00;;;;;;;;;;5083303;28;20237;-52
2022/08/12 05:07:57;;;;;;;2.85;2.65;;;;;;;;;;5076129;28;20230;-54
2022/08/12 05:10:24;;;;;;;6.90;3.30;;;;;;;;;;5083246;28;20264;-57
2022/08/12 05:12:57;;;;;;;5.38;3.40;;;;;;;;;;5084030;28;20230;-54
2022/08/12 05:15:23;;;;;;;3.22;2.97;;;;;;;;;;5075444;28;20231;-60
2022/08/12 05:17:51;;;;;;;3.95;2.75;;;;;;;;;;5075724;28;20234;-54
2022/08/12 05:20:18;;;;;;;4.90;2.60;;;;;;;;;;5082966;28;20234;-53
2022/08/12 05:22:45;;;;;;;4.72;3.10;;;;;;;;;;5084548;28;20576;-53
2022/08/12 05:25:11;;;;;;;4.80;3.22;;;;;;;;;;5075684;28;20240;-53
2022/08/12 05:27:38;;;;;;;4.30;2.60;;;;;;;;;;5073051;28;20231;-52
2022/08/12 05:30:05;;;;;;;4.57;3.33;;;;;;;;;;5081070;28;20230;-54
2022/08/12 05:32:31;;;;;;;7.35;3.08;;;;;;;;;;5076544;28;20313;-54
2022/08/12 05:35:05;;;;;;;3.67;2.83;;;;;;;;;;5083969;28;20234;-53
2022/08/12 05:37:31;;;;;;;4.72;3.00;;;;;;;;;;5078397;28;20226;-53
2022/08/12 05:39:58;;;;;;;6.30;2.83;;;;;;;;;;5077633;28;20656;-54
2022/08/12 05:42:24;;;;;;;2.80;2.60;;;;;;;;;;5072356;28;20299;-54
2022/08/12 05:44:50;;;;;;;4.43;2.85;;;;;;;;;;5081740;28;20245;-53
2022/08/12 05:47:17;;;;;;;5.35;3.45;;;;;;;;;;5082768;28;20880;-53
2022/08/12 05:49:43;;;;;;;4.22;3.10;;;;;;;;;;5080048;28;20476;-52
2022/08/12 05:52:11;;;;;;;3.72;2.85;;;;;;;;;;5078114;28;20453;-53
2022/08/12 05:54:42;;;;;;;4.80;2.65;;;;;;;;;;5076485;28;20317;-53
2022/08/12 05:57:10;;;;;;;6.63;2.88;;;;;;;;;;5079501;28;20327;-55
2022/08/12 05:59:37;;;;;;;9.40;3.00;;;;;;;;;;5076129;28;20245;-53
2022/08/12 06:02:06;;;;;;;7.45;3.05;;;;;;;;;;5078898;28;20235;-54
2022/08/12 06:04:33;;;;;;;8.85;2.80;;;;;;;;;;5077985;28;20232;-54
2022/08/12 06:07:00;;;;;;;5.95;3.28;;;;;;;;;;5075197;28;20253;-53
2022/08/12 06:09:29;;;;;;;4.93;3.08;;;;;;;;;;5076580;27;20912;-53
2022/08/12 06:11:55;;;;;;;5.00;2.72;;;;;;;;;;5075967;27;20230;-53
2022/08/12 06:14:22;;;;;;;4.53;3.08;;;;;;;;;;5074013;27;20235;-52
2022/08/12 06:16:50;;;;;;;3.90;3.08;;;;;;;;;;5079009;27;20266;-53
2022/08/12 06:19:16;;;;;;;4.38;2.67;;;;;;;;;;5077695;27;20989;-52
2022/08/12 06:21:47;;;;;;;3.22;2.70;;;;;;;;;;5082165;27;20227;-53
2022/08/12 06:24:13;;;;;;;6.88;3.33;;;;;;;;;;5078232;27;20610;-53
2022/08/12 06:26:41;;;;;;;5.78;2.97;;;;;;;;;;5076664;27;20230;-53
2022/08/12 06:29:07;;;;;;;3.45;2.83;;;;;;;;;;5073745;27;20249;-53
2022/08/12 06:31:33;;;;;;;6.70;2.67;;;;;;;;;;5071443;27;20235;-54
2022/08/12 06:34:01;;;;;;;10.02;3.30;;;;;;;;;;5073719;27;20238;-52
2022/08/12 06:36:28;;;;;;;5.35;2.50;;;;;;;;;;5075672;27;20250;-54
2022/08/12 06:38:56;;;;;;;3.95;2.30;;;;;;;;;;5070119;27;20306;-58
2022/08/12 06:44:19;;;;;;;8.63;2.70;;;;;;;;;;5073608;27;20364;-53
2022/08/12 06:46:45;;;;;;;6.47;2.35;;;;;;;;;;5069620;27;20747;-54
2022/08/12 06:49:12;;;;;;;6.40;2.47;;;;;;;;;;5081829;27;20253;-52
2022/08/12 06:51:38;;;;;;;2.35;1.77;;;;;;;;;;5081666;27;20329;-52
2022/08/12 06:54:05;;;;;;;4.07;2.25;;;;;;;;;;5074221;27;20775;-53
2022/08/12 06:56:31;;;;;;;4.60;2.53;;;;;;;;;;5071659;27;20746;-53
2022/08/12 06:58:57;;;;;;;3.38;2.17;;;;;;;;;;5079930;27;20232;-53
2022/08/12 07:01:26;;;;;;;1.95;1.85;;;;;;;;;;5074532;27;20238;-54
2022/08/12 07:03:52;;;;;;;6.50;1.98;;;;;;;;;;5075973;27;20318;-55
2022/08/12 07:06:19;;;;;;;2.70;2.05;;;;;;;;;;5078154;27;20696;-54
2022/08/12 07:08:45;;;;;;;1.95;1.80;;;;;;;;;;5077679;27;20246;-55
2022/08/12 07:11:12;;;;;;;5.63;1.80;;;;;;;;;;5076530;27;20325;-55
2022/08/12 07:13:42;;;;;;;4.45;2.45;;;;;;;;;;5087787;22;20638;-54
2022/08/12 07:16:08;;;;;;;4.95;2.00;;;;;;;;;;5016836;28;20228;-53
2022/08/12 07:18:36;;;;;;;1.83;1.73;;;;;;;;;;5022073;28;20231;-53
2022/08/12 07:21:04;;;;;;;2.10;1.85;;;;;;;;;;5019278;28;20691;-53
2022/08/12 07:23:33;;;;;;;2.45;1.85;;;;;;;;;;5022456;28;20868;-54
2022/08/12 07:26:01;;;;;;;3.85;1.50;;;;;;;;;;5014737;28;20236;-53
2022/08/12 07:28:29;;;;;;;3.50;1.70;;;;;;;;;;5018148;28;20236;-54
2022/08/12 07:30:56;;;;;;;1.92;1.50;;;;;;;;;;5020805;28;20653;-53
2022/08/12 07:33:24;;;;;;;1.58;1.20;;;;;;;;;;5020811;28;20236;-53
2022/08/12 07:35:52;;;;;;;4.70;1.67;;;;;;;;;;5017381;28;20232;-54
2022/08/12 07:38:23;;;;;;;3.83;2.15;;;;;;;;;;5018338;28;20260;-54
2022/08/12 07:40:50;;;;;;;2.10;1.60;;;;;;;;;;5016839;28;20239;-52
2022/08/12 07:43:16;;;;;;;3.28;1.80;;;;;;;;;;5020512;28;20612;-54
2022/08/12 07:45:44;;;;;;;2.47;1.73;;;;;;;;;;5019997;28;20232;-53
2022/08/12 07:48:10;;;;;;;3.63;2.03;;;;;;;;;;5015218;28;20718;-54
2022/08/12 07:50:37;;;;;;;7.22;1.58;;;;;;;;;;5014485;28;20247;-54
2022/08/12 07:53:04;;;;;;;2.63;2.00;;;;;;;;;;5012432;28;20232;-53
2022/08/12 07:55:31;;;;;;;1.92;1.50;;;;;;;;;;5023601;28;20534;-52
2022/08/12 07:58:01;;;;;;;2.83;1.48;;;;;;;;;;5016515;28;20323;-53
2022/08/12 08:00:28;;;;;;;1.02;1.00;;;;;;;;;;5015117;28;20328;-53
2022/08/12 08:02:55;;;;;;;1.58;1.48;;;;;;;;;;5023425;28;20735;-53
2022/08/12 08:05:22;;;;;;;2.97;1.42;;;;;;;;;;5016396;28;20721;-53
2022/08/12 08:07:52;;;;;;;1.85;1.02;;;;;;;;;;5021637;28;20229;-54
2022/08/12 08:10:19;;;;;;;3.05;1.35;;;;;;;;;;5024003;28;20236;-53
2022/08/12 08:12:56;;;;;;;2.65;1.40;;;;;;;;;;5019321;28;20252;-54
2022/08/12 08:15:23;;;;;;;1.52;1.42;;;;;;;;;;5022199;28;20582;-53
2022/08/12 08:17:56;;;;;;;2.13;1.50;;;;;;;;;;5012047;28;20232;-54
2022/08/12 08:20:27;;;;;;;2.80;1.08;;;;;;;;;;5012973;28;20236;-53
2022/08/12 08:22:53;;;;;;;4.28;1.73;;;;;;;;;;5016343;28;20695;-53
2022/08/12 08:25:21;;;;;;;2.90;1.38;;;;;;;;;;5016995;28;20263;-53
2022/08/12 08:27:47;;;;;;;4.75;1.73;;;;;;;;;;5016470;28;20236;-53
2022/08/12 08:30:14;;;;;;;4.03;1.30;;;;;;;;;;5005399;28;20236;-55
2022/08/12 08:32:40;;;;;;;3.33;1.55;;;;;;;;;;5017298;28;20239;-55
2022/08/12 08:35:09;;;;;;;3.15;1.42;;;;;;;;;;5011084;28;20237;-54
2022/08/12 08:37:35;;;;;;;2.67;1.05;;;;;;;;;;4998866;28;20235;-54
2022/08/12 08:42:35;;;;;;;1.83;1.50;;;;;;;;;;4997709;28;20552;-53
2022/08/12 08:42:48;;;;;;;1.80;1.20;;;;;;;;;;4995694;28;20239;-53
2022/08/12 08:45:15;;;;;;;2.42;1.10;;;;;;;;;;4995072;28;20251;-52
2022/08/12 08:47:44;;;;;;;1.42;1.02;;;;;;;;;;4993872;28;20228;-53
2022/08/12 08:50:13;;;;;;;2.78;1.00;;;;;;;;;;4999084;28;20239;-53
2022/08/12 08:52:40;;;;;;;2.70;1.35;;;;;;;;;;5000100;28;20229;-53
2022/08/12 08:55:07;;;;;;;2.20;1.20;;;;;;;;;;4999702;28;20393;-54
2022/08/12 08:57:33;;;;;;;1.85;1.20;;;;;;;;;;4999037;28;20236;-54
2022/08/12 09:00:01;;;;;;;3.90;1.55;;;;;;;;;;5000546;28;22237;-53
2022/08/12 09:02:28;;;;;;;1.73;1.20;;;;;;;;;;5001128;28;20240;-53
2022/08/12 09:04:54;;;;;;;1.90;1.20;;;;;;;;;;4999241;28;20236;-53
2022/08/12 09:07:20;;;;;;;1.52;0.90;;;;;;;;;;4995949;28;20233;-53
2022/08/12 09:09:47;;;;;;;1.63;1.20;;;;;;;;;;4998294;28;20251;-54
2022/08/12 09:14:57;;;;;;;1.75;1.15;;;;;;;;;;4998546;28;20240;-53
2022/08/12 09:17:25;;;;;;;3.45;1.42;;;;;;;;;;4999497;28;20237;-53
2022/08/12 09:19:51;;;;;;;3.92;1.35;;;;;;;;;;5000236;28;20252;-53
2022/08/12 09:22:19;;;;;;;1.17;1.08;;;;;;;;;;4996606;28;20233;-53
2022/08/12 09:24:46;;;;;;;2.10;1.27;;;;;;;;;;5000706;28;20318;-54
2022/08/12 09:27:15;;;;;;;1.65;1.30;;;;;;;;;;4996704;28;20719;-54
2022/08/12 09:29:42;;;;;;;2.30;1.17;;;;;;;;;;4998509;28;20237;-54
2022/08/12 09:32:08;;;;;;;4.45;1.50;;;;;;;;;;5001195;28;20229;-53
2022/08/12 09:34:36;;;;;;;2.30;1.20;;;;;;;;;;5003601;28;20247;-55
2022/08/12 09:37:02;;;;;;;1.27;1.17;;;;;;;;;;5000654;28;20232;-53
2022/08/12 09:39:29;;;;;;;1.50;1.00;;;;;;;;;;5001638;28;20247;-53
2022/08/12 09:47:16;;;;;;;2.05;0.95;;;;;;;;;;4986213;28;20820;-53
2022/08/12 09:49:45;;;;;;;4.28;1.45;;;;;;;;;;5001044;28;20237;-54
2022/08/12 09:52:14;;;;;;;2.42;1.33;;;;;;;;;;5002092;28;22974;-54
2022/08/12 09:54:40;;;;;;;2.53;1.58;;;;;;;;;;5002016;28;20782;-54
2022/08/12 09:57:08;;;;;;;2.08;1.58;;;;;;;;;;5000755;28;20236;-55
2022/08/12 09:59:34;;;;;;;4.00;1.38;;;;;;;;;;4998838;28;20706;-54
2022/08/12 10:02:00;;;;;;;4.03;2.08;;;;;;;;;;5001238;28;20323;-54
2022/08/12 10:04:27;;;;;;;1.98;0.95;;;;;;;;;;5011328;28;20236;-53
2022/08/12 10:06:54;;;;;;;3.35;1.20;;;;;;;;;;5017358;28;20307;-53
2022/08/12 10:09:21;;;;;;;3.35;1.90;;;;;;;;;;5021003;28;20240;-53
2022/08/12 10:14:31;;;;;;;1.67;1.40;;;;;;;;;;5021040;28;20302;-53
2022/08/12 10:16:57;;;;;;;2.90;1.30;;;;;;;;;;5011697;28;20243;-53
2022/08/12 10:19:23;;;;;;;1.60;1.50;;;;;;;;;;5017432;28;20247;-55
2022/08/12 10:21:51;;;;;;;2.50;1.17;;;;;;;;;;5022929;28;20600;-54
2022/08/12 10:24:22;;;;;;;5.20;1.45;;;;;;;;;;5013576;28;20600;-53
2022/08/12 10:29:43;;;;;;;6.70;1.80;;;;;;;;;;5017326;28;20825;-54
2022/08/12 10:32:15;;;;;;;4.47;1.35;;;;;;;;;;5018215;28;20248;-54
2022/08/12 10:34:42;;;;;;;4.65;1.88;;;;;;;;;;5015906;28;20725;-53
2022/08/12 10:37:09;;;;;;;1.13;0.98;;;;;;;;;;5010850;28;20244;-54
2022/08/12 10:39:38;;;;;;;1.80;1.42;;;;;;;;;;5019416;28;20243;-54
2022/08/12 10:45:00;;;;;;;0.90;0.90;;;;;;;;;;4976031;28;20252;-54
2022/08/12 10:47:27;;;;;;;2.90;1.38;;;;;;;;;;5018598;28;20237;-54
2022/08/12 10:49:54;;;;;;;4.15;1.48;;;;;;;;;;5022088;28;20236;-55
2022/08/12 10:52:23;;;;;;;5.68;1.77;;;;;;;;;;5022501;28;20224;-54
2022/08/12 10:54:50;;;;;;;0.98;0.88;;;;;;;;;;5024468;28;20737;-53
2022/08/12 10:57:17;;;;;;;3.80;1.60;;;;;;;;;;5023032;28;20232;-53
2022/08/12 10:59:44;;;;;;;3.65;1.73;;;;;;;;;;5019578;28;20606;-53
2022/08/12 11:02:12;;;;;;;1.55;1.23;;;;;;;;;;5021296;28;20235;-53
2022/08/12 11:04:39;;;;;;;1.75;1.48;;;;;;;;;;5020478;28;20320;-53
2022/08/12 11:07:06;;;;;;;1.95;1.35;;;;;;;;;;5019506;28;20912;-53
2022/08/12 11:09:33;;;;;;;4.88;1.35;;;;;;;;;;5002391;28;20232;-53
2022/08/12 11:12:05;;;;;;;3.28;1.45;;;;;;;;;;5007653;28;20240;-53
2022/08/12 11:14:32;;;;;;;3.35;1.70;;;;;;;;;;5012157;28;20236;-52
2022/08/12 11:16:59;;;;;;;2.45;2.03;;;;;;;;;;5014981;28;20673;-54
2022/08/12 11:19:26;;;;;;;5.50;1.20;;;;;;;;;;5021273;28;20232;-54
2022/08/12 11:21:54;;;;;;;3.03;1.40;;;;;;;;;;5016903;28;20244;-53
2022/08/12 11:24:20;;;;;;;1.38;1.27;;;;;;;;;;5021338;28;20236;-53
2022/08/12 11:26:48;;;;;;;1.65;1.30;;;;;;;;;;5015220;28;20984;-52
2022/08/12 11:29:16;;;;;;;1.48;1.27;;;;;;;;;;5020156;28;20331;-53
2022/08/12 11:31:42;;;;;;;1.10;1.00;;;;;;;;;;5017860;28;20719;-52
2022/08/12 11:34:08;;;;;;;2.00;1.23;;;;;;;;;;5018155;28;20241;-54
2022/08/12 11:36:35;;;;;;;4.70;1.50;;;;;;;;;;5008014;28;20678;-54
2022/08/12 11:39:01;;;;;;;3.95;1.50;;;;;;;;;;5019050;28;20727;-54
2022/08/12 11:41:27;;;;;;;2.63;1.50;;;;;;;;;;5016050;28;20224;-54
2022/08/12 11:43:54;;;;;;;3.08;1.63;;;;;;;;;;5015728;28;20236;-53
2022/08/12 11:46:21;;;;;;;2.30;1.42;;;;;;;;;;5016654;28;20239;-54
2022/08/12 11:48:48;;;;;;;2.72;1.38;;;;;;;;;;5015159;28;20244;-53
2022/08/12 11:51:14;;;;;;;3.17;1.83;;;;;;;;;;5020030;28;20245;-54
2022/08/12 11:53:40;;;;;;;2.10;1.42;;;;;;;;;;5021460;28;20236;-54
2022/08/12 11:56:07;;;;;;;3.13;1.38;;;;;;;;;;5015269;28;20244;-52
2022/08/12 11:58:34;;;;;;;3.53;2.20;;;;;;;;;;5017441;28;20654;-53
2022/08/12 12:01:00;;;;;;;3.58;3.28;;;;;;;;;;5015417;28;20243;-54
2022/08/12 12:03:28;;;;;;;3.08;1.70;;;;;;;;;;5016339;28;20755;-53
2022/08/12 12:05:54;;;;;;;1.30;1.20;;;;;;;;;;5015197;28;20600;-52
2022/08/12 12:08:21;;;;;;;3.75;1.83;;;;;;;;;;5019551;28;20235;-54
2022/08/12 12:10:48;;;;;;;2.03;1.35;;;;;;;;;;5013862;28;20248;-54
2022/08/12 12:13:14;;;;;;;5.05;1.60;;;;;;;;;;5010513;28;20762;-53
2022/08/12 12:15:41;;;;;;;2.38;1.50;;;;;;;;;;5014594;28;20232;-54
2022/08/12 12:18:18;;;;;;;1.80;1.40;;;;;;;;;;5014752;28;20271;-53
2022/08/12 12:20:46;;;;;;;1.65;1.38;;;;;;;;;;5014743;28;20314;-55
2022/08/12 12:23:13;;;;;;;4.28;1.52;;;;;;;;;;5018660;28;20258;-54
2022/08/12 12:25:39;;;;;;;1.77;1.27;;;;;;;;;;5011378;28;20240;-53
2022/08/12 12:28:05;;;;;;;2.22;2.03;;;;;;;;;;5013763;28;20351;-53
2022/08/12 12:30:32;;;;;;;9.15;2.25;;;;;;;;;;5014094;28;20235;-53
2022/08/12 12:32:59;;;;;;;1.40;1.30;;;;;;;;;;5019822;28;20246;-52
2022/08/12 12:35:25;;;;;;;4.25;1.67;;;;;;;;;;5016352;28;20714;-56
2022/08/12 12:37:54;;;;;;;3.40;1.42;;;;;;;;;;5017170;28;20232;-53
2022/08/12 12:40:21;;;;;;;2.55;1.05;;;;;;;;;;5016225;28;20239;-54
2022/08/12 12:42:47;;;;;;;7.93;1.38;;;;;;;;;;5018693;28;20306;-53
2022/08/12 12:45:14;;;;;;;1.85;1.20;;;;;;;;;;5015760;28;20239;-53
2022/08/12 12:47:51;;;;;;;3.92;1.65;;;;;;;;;;5018352;28;20236;-54
2022/08/12 12:50:18;;;;;;;1.17;1.10;;;;;;;;;;5013250;28;20293;-54
2022/08/12 12:52:44;;;;;;;2.60;1.05;;;;;;;;;;5019472;28;20231;-53
2022/08/12 12:55:13;;;;;;;1.95;1.45;;;;;;;;;;5013759;28;20670;-53
2022/08/12 12:57:39;;;;;;;2.72;1.25;;;;;;;;;;5018382;28;20236;-55
2022/08/12 13:00:16;;;;;;;7.88;1.23;;;;;;;;;;5016960;28;20365;-53
2022/08/12 13:02:44;;;;;;;1.10;1.00;;;;;;;;;;5020014;28;20224;-53
2022/08/12 13:05:11;;;;;;;4.63;1.25;;;;;;;;;;5020456;28;20296;-52
2022/08/12 13:07:38;;;;;;;1.58;1.20;;;;;;;;;;5017736;28;20240;-54
2022/08/12 13:10:05;;;;;;;1.02;1.02;;;;;;;;;;5019690;28;20236;-53
2022/08/12 13:12:33;;;;;;;1.50;1.17;;;;;;;;;;5014443;28;20237;-53
2022/08/12 13:15:02;;;;;;;3.28;1.67;;;;;;;;;;5017108;28;20241;-52
2022/08/12 13:17:30;;;;;;;2.45;1.48;;;;;;;;;;5018170;28;20770;-53
2022/08/12 13:19:56;;;;;;;4.05;1.52;;;;;;;;;;5023884;28;20706;-54
2022/08/12 13:22:24;;;;;;;5.20;1.35;;;;;;;;;;5021125;28;20258;-53
2022/08/12 13:24:53;;;;;;;2.08;1.40;;;;;;;;;;5017661;28;20236;-53
2022/08/12 13:27:19;;;;;;;1.70;1.25;;;;;;;;;;5021388;28;20246;-54
2022/08/12 13:29:47;;;;;;;2.33;1.10;;;;;;;;;;5021705;28;20263;-54
2022/08/12 13:32:13;;;;;;;2.15;1.23;;;;;;;;;;5016413;28;20228;-53
2022/08/12 13:34:40;;;;;;;3.05;1.27;;;;;;;;;;5013461;28;20243;-53
2022/08/12 13:37:06;;;;;;;1.73;1.23;;;;;;;;;;5012659;28;20228;-54
2022/08/12 13:39:33;;;;;;;3.25;1.40;;;;;;;;;;5020809;28;20233;-53
2022/08/12 13:42:00;;;;;;;3.75;3.05;;;;;;;;;;5017287;28;20244;-52
2022/08/12 13:44:26;;;;;;;6.47;2.83;;;;;;;;;;5021378;28;20241;-54
2022/08/12 13:46:54;;;;;;;4.30;3.90;;;;;;;;;;5017084;28;20483;-53
2022/08/12 13:49:20;;;;;;;2.45;1.83;;;;;;;;;;5016544;28;20241;-53
2022/08/12 13:51:51;;;;;;;2.25;1.50;;;;;;;;;;5016370;28;20564;-52
2022/08/12 13:54:18;;;;;;;3.95;2.35;;;;;;;;;;5018573;28;20649;-53
2022/08/12 13:56:44;;;;;;;3.53;1.85;;;;;;;;;;5017081;28;20228;-53
2022/08/12 13:59:12;;;;;;;3.83;2.38;;;;;;;;;;5020938;28;20275;-53
2022/08/12 14:01:39;;;;;;;5.28;2.17;;;;;;;;;;5016864;28;20233;-53
2022/08/12 14:04:08;;;;;;;4.38;3.00;;;;;;;;;;5020898;28;20320;-55
2022/08/12 14:06:34;;;;;;;3.70;1.80;;;;;;;;;;5013765;28;20539;-53
2022/08/12 14:09:01;;;;;;;4.25;3.33;;;;;;;;;;5015471;28;20232;-53
2022/08/12 14:11:28;;;;;;;3.70;3.30;;;;;;;;;;5013624;28;20315;-52
2022/08/12 14:13:55;;;;;;;5.38;2.50;;;;;;;;;;5007156;28;20674;-53
2022/08/12 14:16:22;;;;;;;8.25;2.97;;;;;;;;;;5012252;28;20228;-54
2022/08/12 14:18:48;;;;;;;3.42;2.00;;;;;;;;;;5020027;28;20233;-53
2022/08/12 14:21:16;;;;;;;1.83;1.73;;;;;;;;;;5014684;28;20228;-53
2022/08/12 14:23:43;;;;;;;2.70;1.45;;;;;;;;;;5011483;28;20264;-52
2022/08/12 14:26:10;;;;;;;3.55;1.40;;;;;;;;;;5020457;28;20235;-53
2022/08/12 14:28:37;;;;;;;1.75;1.55;;;;;;;;;;5020471;28;20260;-53
2022/08/12 14:31:04;;;;;;;1.48;1.38;;;;;;;;;;5022219;28;20328;-53
2022/08/12 14:33:32;;;;;;;2.53;1.35;;;;;;;;;;5010626;28;20237;-54
2022/08/12 14:35:59;;;;;;;1.63;1.38;;;;;;;;;;5007135;28;20271;-54
2022/08/12 14:38:28;;;;;;;1.65;1.55;;;;;;;;;;5019318;28;20237;-54
2022/08/12 14:40:56;;;;;;;1.08;1.00;;;;;;;;;;5021609;28;20384;-53
2022/08/12 14:43:24;;;;;;;1.33;1.23;;;;;;;;;;5019975;28;20231;-53
2022/08/12 14:45:50;;;;;;;1.77;1.50;;;;;;;;;;5013127;28;20733;-54
2022/08/12 14:48:18;;;;;;;4.97;1.55;;;;;;;;;;5016697;28;20251;-54
2022/08/12 14:50:44;;;;;;;2.53;1.80;;;;;;;;;;5013988;28;20235;-54
2022/08/12 14:53:13;;;;;;;1.90;1.73;;;;;;;;;;5022169;28;20239;-53
2022/08/12 14:55:41;;;;;;;3.33;1.65;;;;;;;;;;5008571;28;20501;-54
2022/08/12 14:58:09;;;;;;;2.08;1.75;;;;;;;;;;5009864;28;20239;-53
2022/08/12 15:03:26;;;;;;;1.25;1.20;;;;;;;;;;5018510;28;20235;-53
2022/08/12 15:05:54;;;;;;;4.00;1.67;;;;;;;;;;5016576;28;20243;-54
2022/08/12 15:08:23;;;;;;;1.50;1.40;;;;;;;;;;5011945;28;20221;-55
2022/08/12 15:10:52;;;;;;;2.80;1.52;;;;;;;;;;5007149;28;20678;-54
2022/08/12 15:13:19;;;;;;;3.45;1.42;;;;;;;;;;5005476;28;20453;-54
2022/08/12 15:15:46;;;;;;;1.45;1.35;;;;;;;;;;5015314;28;20260;-53
2022/08/12 15:18:14;;;;;;;2.95;1.83;;;;;;;;;;5006341;28;20236;-53
2022/08/12 15:20:41;;;;;;;2.38;1.60;;;;;;;;;;5015418;28;20527;-54
2022/08/12 15:23:09;;;;;;;1.48;1.38;;;;;;;;;;5013584;28;20306;-53
2022/08/12 15:25:36;;;;;;;1.40;1.30;;;;;;;;;;5015293;28;20306;-54
2022/08/12 15:28:05;;;;;;;1.33;1.30;;;;;;;;;;5013746;28;20243;-55
2022/08/12 15:30:32;;;;;;;2.80;1.52;;;;;;;;;;5016660;28;20240;-53
2022/08/12 15:32:58;;;;;;;2.28;1.55;;;;;;;;;;5013083;28;20484;-54
2022/08/12 15:35:26;;;;;;;6.85;2.00;;;;;;;;;;5015009;28;20324;-54
2022/08/12 15:38:00;;;;;;;1.67;1.52;;;;;;;;;;5013512;28;20236;-54
2022/08/12 15:40:26;;;;;;;1.40;1.30;;;;;;;;;;5013584;28;20235;-55
2022/08/12 15:42:53;;;;;;;2.38;1.85;;;;;;;;;;5017090;28;20237;-53
2022/08/12 15:45:21;;;;;;;4.28;2.03;;;;;;;;;;5011910;28;20245;-54
2022/08/12 15:47:51;;;;;;;2.53;1.45;;;;;;;;;;5009582;28;20278;-54
2022/08/12 15:50:18;;;;;;;5.50;1.92;;;;;;;;;;5014082;28;20240;-54
2022/08/12 15:52:44;;;;;;;1.92;1.35;;;;;;;;;;5014162;28;20255;-53
2022/08/12 15:55:13;;;;;;;1.60;1.30;;;;;;;;;;5012252;28;20239;-54
2022/08/12 15:57:40;;;;;;;1.67;1.55;;;;;;;;;;5012524;28;20306;-53
2022/08/12 16:00:07;;;;;;;2.55;1.25;;;;;;;;;;5014259;28;20248;-53
2022/08/12 16:02:41;;;;;;;2.63;2.05;;;;;;;;;;5012909;28;20726;-53
2022/08/12 16:05:07;;;;;;;1.92;1.83;;;;;;;;;;5016174;28;20244;-53
2022/08/12 16:07:34;;;;;;;2.00;1.80;;;;;;;;;;5017037;28;20290;-54
2022/08/12 16:10:01;;;;;;;3.53;1.60;;;;;;;;;;5018010;28;20599;-53
2022/08/12 16:12:31;;;;;;;2.13;1.70;;;;;;;;;;5020931;28;20243;-55
2022/08/12 16:14:57;;;;;;;1.95;1.45;;;;;;;;;;5016612;28;20228;-54
2022/08/12 16:17:24;;;;;;;1.20;1.20;;;;;;;;;;5017154;28;20236;-55
2022/08/12 16:19:51;;;;;;;3.67;2.00;;;;;;;;;;5017901;28;20233;-53
2022/08/12 16:22:21;;;;;;;4.03;1.73;;;;;;;;;;5018449;28;20750;-54
2022/08/12 16:24:49;;;;;;;6.57;1.67;;;;;;;;;;5012601;28;20239;-53
2022/08/12 16:27:16;;;;;;;3.67;1.90;;;;;;;;;;5016430;28;20236;-54
2022/08/12 16:29:42;;;;;;;1.90;1.80;;;;;;;;;;5019154;28;20235;-56
2022/08/12 16:32:09;;;;;;;4.68;1.95;;;;;;;;;;5018880;28;20232;-55
2022/08/12 16:34:36;;;;;;;3.17;2.03;;;;;;;;;;5014370;28;20801;-55